createdAt,value
2023-03-13T00:08:57.172Z,10.24504
2023-03-13T00:18:58.338Z,10.3703
2023-03-13T00:28:59.512Z,10.48289
2023-03-13T00:39:00.983Z,10.6478
2023-03-13T00:49:02.176Z,10.82698
2023-03-13T00:59:04.069Z,10.95859
2023-03-13T01:09:05.865Z,11.02646
2023-03-13T01:19:07.566Z,11.27985
2023-03-13T01:29:09.393Z,21.7276
2023-03-13T01:39:11.174Z,11.48631
2023-03-13T01:49:12.458Z,11.56559
2023-03-13T01:59:13.639Z,11.70989
2023-03-13T02:09:14.793Z,11.79647
2023-03-13T02:19:16.771Z,21.7276
2023-03-13T02:29:18.050Z,11.94521
2023-03-13T02:39:19.257Z,11.91
2023-03-13T02:49:20.614Z,11.86338
2023-03-13T02:59:21.756Z,11.89066
2023-03-13T03:09:22.905Z,11.97597
2023-03-13T03:19:24.115Z,12.02037
2023-03-13T03:29:25.265Z,12.07682
2023-03-13T03:39:26.433Z,12.15959
2023-03-13T03:49:27.649Z,12.20463
2023-03-13T03:59:28.793Z,12.30231
2023-03-13T04:09:31.940Z,12.31626
2023-03-13T04:19:33.369Z,12.34005
2023-03-13T04:29:34.542Z,12.38952
2023-03-13T04:39:35.742Z,12.39935
2023-03-13T04:49:36.916Z,12.45009
2023-03-13T04:59:38.102Z,12.36193
2023-03-13T05:09:39.253Z,12.25759
2023-03-13T05:19:40.641Z,12.20875
2023-03-13T05:29:42.090Z,12.22175
2023-03-13T05:39:43.258Z,12.22746
2023-03-13T05:49:44.414Z,12.12598
2023-03-13T05:59:45.548Z,12.08126
2023-03-13T06:09:46.702Z,12.1117
2023-03-13T06:19:48.140Z,12.04066
2023-03-13T06:29:49.559Z,11.95662
2023-03-13T06:39:50.972Z,11.84404
2023-03-13T06:49:52.161Z,11.84594
2023-03-13T06:59:53.331Z,11.78695
2023-03-13T07:09:54.544Z,11.87417
2023-03-13T07:19:55.921Z,11.99151
2023-03-13T07:29:57.106Z,12.02354
2023-03-13T07:39:58.366Z,12.09807
2023-03-13T07:49:59.685Z,12.29343
2023-03-13T08:00:01.256Z,12.47261
2023-03-13T08:10:03.122Z,12.35241
2023-03-13T08:20:04.855Z,12.79546
2023-03-13T08:30:07.215Z,12.77167
2023-03-13T08:40:08.905Z,12.70539
2023-03-13T08:50:10.425Z,12.50147
2023-03-13T09:00:11.839Z,12.6518
2023-03-13T09:10:13.020Z,12.4076
2023-03-13T09:20:14.189Z,12.06762
2023-03-13T09:30:15.458Z,11.80376
2023-03-13T09:40:16.633Z,11.77268
2023-03-13T09:50:17.834Z,12.13168
2023-03-13T10:00:19.007Z,12.63372
2023-03-13T10:10:20.362Z,13.00541
2023-03-13T10:20:21.628Z,13.04632
2023-03-13T10:30:22.788Z,13.06281
2023-03-13T10:40:23.970Z,12.93786
2023-03-13T10:50:25.147Z,12.87157
2023-03-13T11:00:26.375Z,12.74313
2023-03-13T11:10:27.626Z,13.03744
2023-03-13T11:20:28.799Z,13.17381
2023-03-13T11:30:29.946Z,13.28513
2023-03-13T11:40:31.907Z,13.28862
2023-03-13T11:50:33.494Z,13.23788
2023-03-13T12:00:34.867Z,13.11546
2023-03-13T12:10:36.068Z,13.14305
2023-03-13T12:20:37.219Z,13.28703
2023-03-13T12:30:38.658Z,13.38693
2023-03-13T12:40:39.836Z,13.96128
2023-03-13T12:50:41.993Z,14.03772
2023-03-13T13:00:43.204Z,14.05675
2023-03-13T13:10:44.359Z,13.99807
2023-03-13T13:20:45.525Z,13.98507
2023-03-13T13:30:46.845Z,13.98222
2023-03-13T13:40:48.105Z,13.59466
2023-03-13T13:50:49.298Z,13.45607
2023-03-13T14:00:50.700Z,13.44909
2023-03-13T14:10:51.941Z,13.65016
2023-03-13T14:20:53.093Z,13.02634
2023-03-13T14:30:54.268Z,12.91851
2023-03-13T14:40:55.535Z,12.46944
2023-03-13T14:51:08.851Z,12.39237
2023-03-13T15:01:15.920Z,12.5186
2023-03-13T15:11:17.162Z,12.71617
2023-03-13T15:21:18.441Z,12.90139
2023-03-13T15:31:19.651Z,13.10531
2023-03-13T15:41:21.031Z,13.07296
2023-03-13T15:51:22.209Z,13.0755
2023-03-13T16:01:23.487Z,12.8776
2023-03-13T16:11:24.664Z,12.75011
2023-03-13T16:21:25.827Z,12.65433
2023-03-13T16:31:27.120Z,12.09109
2023-03-13T16:41:28.385Z,11.71623
2023-03-13T16:51:29.626Z,11.63726
2023-03-13T17:01:30.993Z,11.7619
2023-03-13T17:11:32.167Z,11.80852
2023-03-13T17:21:33.371Z,11.84372
2023-03-13T17:31:34.613Z,11.78315
2023-03-13T17:41:35.845Z,11.8878
2023-03-13T17:51:37.013Z,11.88527
2023-03-13T18:01:38.230Z,11.85228
2023-03-13T18:11:39.439Z,11.88178
2023-03-13T18:21:40.870Z,11.85577
2023-03-13T18:31:42.138Z,11.86148
2023-03-13T18:41:43.351Z,11.91317
2023-03-13T18:51:44.661Z,11.84118
2023-03-13T19:01:45.883Z,11.78251
2023-03-13T19:11:47.068Z,11.76
2023-03-13T19:21:48.256Z,11.6176
2023-03-13T19:31:49.515Z,11.52595
2023-03-13T19:41:50.925Z,11.57574
2023-03-13T19:51:52.103Z,11.54561
2023-03-13T20:01:54.515Z,11.54878
2023-03-13T20:11:55.686Z,11.44508
2023-03-13T20:21:56.847Z,11.27541
2023-03-13T20:31:58.140Z,11.1993
2023-03-13T20:42:01.004Z,11.13365
2023-03-13T20:52:04.310Z,11.17361
2023-03-13T21:02:06.197Z,11.10638
2023-03-13T21:12:07.980Z,11.0014
2023-03-13T21:22:09.517Z,8.41171
2023-03-13T21:32:11.089Z,6.63455
2023-03-13T21:42:12.273Z,6.11574
2023-03-13T21:52:13.449Z,6.03804
2023-03-13T22:02:14.608Z,5.94957
2023-03-13T22:12:15.971Z,5.96669
2023-03-13T22:22:17.154Z,5.98096
2023-03-13T22:32:18.395Z,6.03297
2023-03-13T22:42:19.669Z,5.93244
2023-03-13T22:52:21.069Z,5.8167
2023-03-13T23:02:22.242Z,5.80845
2023-03-13T23:12:23.395Z,5.83953
2023-03-13T23:22:24.550Z,6.065
2023-03-13T23:32:25.780Z,6.04914
2023-03-13T23:42:26.946Z,6.00221
2023-03-13T23:52:28.091Z,5.89851
